Time;durP1;ratioP1;P1;durP2;ratioP2;P2;SDS_P1;SDS_P2;PMS_P1;PMS_P2;Temp;Humidity;BMP_temperature;BMP_pressure;BME280_temperature;BME280_humidity;BME280_pressure;Samples;Min_cycle;Max_cycle;Signal;HPM_P1;HPM_P2
2021/01/23 00:00:47;;;;;;;0.40;0.20;;;;;;;;;;5052708;28;20568;-75
2021/01/23 00:03:13;;;;;;;0.47;0.27;;;;;;;;;;5052633;28;20173;-75
2021/01/23 00:05:39;;;;;;;0.73;0.30;;;;;;;;;;5052716;28;20836;-76
2021/01/23 00:08:05;;;;;;;0.40;0.30;;;;;;;;;;5052639;28;20461;-76
2021/01/23 00:13:34;;;;;;;0.45;0.45;;;;;;;;;;5053007;28;20258;-74
2021/01/23 00:16:00;;;;;;;0.40;0.30;;;;;;;;;;5056004;28;20240;-76
2021/01/23 00:18:26;;;;;;;0.50;0.40;;;;;;;;;;5056561;28;20411;-76
2021/01/23 00:20:52;;;;;;;0.50;0.50;;;;;;;;;;5056586;28;20183;-76
2021/01/23 00:23:18;;;;;;;0.60;0.50;;;;;;;;;;5056598;28;20411;-77
2021/01/23 00:28:48;;;;;;;0.70;0.65;;;;;;;;;;5056430;28;20480;-74
2021/01/23 00:31:14;;;;;;;0.60;0.50;;;;;;;;;;5056300;28;20164;-76
2021/01/23 00:33:40;;;;;;;0.60;0.60;;;;;;;;;;5056438;28;20175;-77
2021/01/23 00:36:07;;;;;;;0.75;0.70;;;;;;;;;;5056557;28;20269;-75
2021/01/23 00:38:33;;;;;;;0.63;0.60;;;;;;;;;;5056291;28;20192;-74
2021/01/23 00:44:02;;;;;;;0.70;0.70;;;;;;;;;;5056416;28;20291;-76
2021/01/23 00:46:28;;;;;;;0.40;0.35;;;;;;;;;;5056005;28;20188;-76
2021/01/23 00:48:54;;;;;;;0.70;0.70;;;;;;;;;;5055983;28;20527;-75
2021/01/23 00:51:20;;;;;;;0.67;0.67;;;;;;;;;;5056161;28;20423;-74
2021/01/23 00:53:46;;;;;;;0.83;0.70;;;;;;;;;;5055784;28;20957;-76
2021/01/23 00:56:12;;;;;;;0.80;0.80;;;;;;;;;;5055651;28;20477;-75
2021/01/23 00:58:39;;;;;;;0.63;0.63;;;;;;;;;;5056002;28;20264;-76
2021/01/23 01:01:05;;;;;;;1.00;0.90;;;;;;;;;;5055732;28;20164;-75
2021/01/23 01:03:31;;;;;;;0.80;0.77;;;;;;;;;;5055804;28;20251;-76
2021/01/23 01:05:57;;;;;;;0.93;0.80;;;;;;;;;;5037913;28;20579;-76
2021/01/23 01:08:23;;;;;;;0.60;0.60;;;;;;;;;;5055636;28;20455;-74
2021/01/23 01:13:52;;;;;;;0.70;0.70;;;;;;;;;;5055649;28;20681;-74
2021/01/23 01:16:18;;;;;;;0.93;0.93;;;;;;;;;;5055430;28;20212;-75
2021/01/23 01:18:44;;;;;;;1.43;1.27;;;;;;;;;;5055732;28;20446;-75
2021/01/23 01:21:10;;;;;;;2.15;1.42;;;;;;;;;;5055842;28;20421;-75
2021/01/23 01:23:36;;;;;;;1.30;1.20;;;;;;;;;;5037347;28;20191;-75
2021/01/23 01:29:06;;;;;;;2.00;1.60;;;;;;;;;;5055385;28;20928;-75
2021/01/23 01:31:32;;;;;;;1.80;1.70;;;;;;;;;;5055223;28;20181;-74
2021/01/23 01:33:58;;;;;;;1.67;1.50;;;;;;;;;;5055270;28;20853;-75
2021/01/23 01:36:24;;;;;;;1.80;1.70;;;;;;;;;;5055134;28;20536;-75
2021/01/23 01:38:50;;;;;;;1.60;1.50;;;;;;;;;;5054954;28;20939;-74
2021/01/23 01:44:19;;;;;;;1.85;1.42;;;;;;;;;;5055015;28;20510;-76
2021/01/23 01:46:45;;;;;;;1.30;1.20;;;;;;;;;;5054951;28;20260;-75
2021/01/23 01:49:12;;;;;;;1.30;1.20;;;;;;;;;;5055119;28;20414;-76
2021/01/23 01:51:38;;;;;;;1.27;1.17;;;;;;;;;;5055124;28;20489;-75
2021/01/23 01:54:05;;;;;;;1.40;1.10;;;;;;;;;;5054993;28;20199;-76
2021/01/23 01:59:34;;;;;;;1.70;1.55;;;;;;;;;;5054963;28;20266;-75
2021/01/23 02:02:06;;;;;;;1.40;1.30;;;;;;;;;;5036615;28;20180;-75
2021/01/23 02:04:43;;;;;;;1.77;1.35;;;;;;;;;;5054589;28;20208;-74
2021/01/23 02:07:10;;;;;;;1.00;1.00;;;;;;;;;;5054542;28;20229;-74
2021/01/23 02:09:42;;;;;;;1.23;0.80;;;;;;;;;;5054200;28;20634;-75
2021/01/23 02:12:46;;;;;;;0.80;0.70;;;;;;;;;;5054431;28;20186;-76
2021/01/23 02:15:16;;;;;;;0.90;0.90;;;;;;;;;;4954167;29;20278;-75
2021/01/23 02:17:47;;;;;;;1.10;0.90;;;;;;;;;;4954377;29;20655;-75
2021/01/23 02:20:24;;;;;;;0.77;0.75;;;;;;;;;;4954080;29;20195;-74
2021/01/23 02:23:14;;;;;;;0.98;0.60;;;;;;;;;;4954162;29;20172;-76
2021/01/23 02:25:52;;;;;;;0.70;0.70;;;;;;;;;;4953932;28;20172;-74
2021/01/23 02:28:22;;;;;;;1.20;1.10;;;;;;;;;;4954141;29;20208;-75
2021/01/23 02:30:57;;;;;;;1.38;0.90;;;;;;;;;;4954009;29;20199;-75
2021/01/23 02:33:24;;;;;;;1.88;1.35;;;;;;;;;;4953937;29;20195;-74
2021/01/23 02:35:51;;;;;;;1.40;1.30;;;;;;;;;;4953916;29;20214;-75
2021/01/23 02:38:17;;;;;;;1.33;0.90;;;;;;;;;;4953750;28;20172;-74
2021/01/23 02:40:44;;;;;;;1.10;0.80;;;;;;;;;;4953693;29;20183;-73
2021/01/23 02:43:10;;;;;;;1.00;0.80;;;;;;;;;;4953769;29;20824;-76
2021/01/23 02:45:36;;;;;;;0.90;0.90;;;;;;;;;;4989791;28;20205;-75
2021/01/23 02:48:03;;;;;;;1.13;1.00;;;;;;;;;;5052801;28;20177;-74
2021/01/23 02:50:29;;;;;;;1.20;1.10;;;;;;;;;;5053209;28;20439;-73
2021/01/23 02:53:03;;;;;;;0.83;0.80;;;;;;;;;;5053413;28;20215;-73
2021/01/23 02:55:32;;;;;;;1.23;1.15;;;;;;;;;;5053042;28;20961;-73
2021/01/23 02:58:00;;;;;;;1.15;1.05;;;;;;;;;;5053528;28;20166;-75
2021/01/23 03:00:26;;;;;;;1.27;1.17;;;;;;;;;;5053167;28;20173;-75
2021/01/23 03:02:58;;;;;;;0.77;0.70;;;;;;;;;;5053545;28;20179;-76
2021/01/23 03:05:25;;;;;;;1.00;1.00;;;;;;;;;;5053533;28;20449;-76
2021/01/23 03:07:51;;;;;;;1.35;1.10;;;;;;;;;;5053184;28;20228;-74
2021/01/23 03:10:17;;;;;;;1.05;0.95;;;;;;;;;;5053272;28;20170;-73
2021/01/23 03:12:43;;;;;;;1.20;1.10;;;;;;;;;;5053364;28;20184;-75
2021/01/23 03:15:10;;;;;;;1.00;0.93;;;;;;;;;;5053692;28;20196;-75
2021/01/23 03:17:36;;;;;;;1.00;0.73;;;;;;;;;;5053171;28;20435;-75
2021/01/23 03:20:03;;;;;;;1.23;1.00;;;;;;;;;;5053259;28;20172;-77
2021/01/23 03:22:29;;;;;;;0.75;0.75;;;;;;;;;;5035388;28;20516;-76
2021/01/23 03:24:55;;;;;;;1.50;1.00;;;;;;;;;;5053068;28;20193;-75
2021/01/23 03:30:28;;;;;;;2.15;1.17;;;;;;;;;;5053020;28;20430;-75
2021/01/23 03:32:53;;;;;;;1.30;1.20;;;;;;;;;;5053040;28;20553;-75
2021/01/23 03:35:20;;;;;;;1.20;1.10;;;;;;;;;;5053042;28;20232;-74
2021/01/23 03:37:46;;;;;;;1.30;1.20;;;;;;;;;;5052971;28;20411;-75
2021/01/23 03:40:13;;;;;;;1.42;1.30;;;;;;;;;;5052774;28;20164;-76
2021/01/23 03:42:39;;;;;;;1.70;1.20;;;;;;;;;;5052952;28;20173;-76
2021/01/23 03:45:06;;;;;;;1.20;1.10;;;;;;;;;;5052896;28;20644;-73
2021/01/23 03:47:32;;;;;;;2.33;1.40;;;;;;;;;;5052860;28;20226;-75
2021/01/23 03:49:58;;;;;;;2.63;1.93;;;;;;;;;;5056157;28;20172;-75
2021/01/23 03:52:24;;;;;;;1.93;1.80;;;;;;;;;;5059371;28;20403;-74
2021/01/23 03:54:50;;;;;;;1.47;1.23;;;;;;;;;;5059059;28;20756;-75
2021/01/23 04:00:20;;;;;;;1.40;1.30;;;;;;;;;;5059294;28;20460;-74
2021/01/23 04:02:46;;;;;;;1.60;1.25;;;;;;;;;;5059283;28;20676;-75
2021/01/23 04:05:12;;;;;;;1.43;1.33;;;;;;;;;;5059161;28;20173;-75
2021/01/23 04:07:38;;;;;;;3.83;1.45;;;;;;;;;;5059251;28;20886;-75
2021/01/23 04:10:04;;;;;;;1.27;1.03;;;;;;;;;;5059258;28;20172;-74
2021/01/23 04:15:34;;;;;;;2.30;1.48;;;;;;;;;;5059339;28;20701;-75
2021/01/23 04:18:00;;;;;;;2.20;1.40;;;;;;;;;;5059277;28;20160;-75
2021/01/23 04:20:26;;;;;;;1.40;1.30;;;;;;;;;;5059482;28;20425;-75
2021/01/23 04:22:52;;;;;;;1.02;0.93;;;;;;;;;;5059202;28;20457;-74
2021/01/23 04:25:18;;;;;;;1.07;1.00;;;;;;;;;;5059089;28;20646;-75
2021/01/23 04:30:47;;;;;;;2.67;1.23;;;;;;;;;;5059191;28;20409;-74
2021/01/23 04:33:13;;;;;;;2.43;1.30;;;;;;;;;;5059295;28;20354;-75
2021/01/23 04:35:39;;;;;;;1.90;1.17;;;;;;;;;;5059168;28;20505;-75
2021/01/23 04:38:05;;;;;;;1.43;1.30;;;;;;;;;;5059247;28;20454;-75
2021/01/23 04:40:31;;;;;;;1.35;1.25;;;;;;;;;;5059024;28;20411;-75
2021/01/23 04:42:57;;;;;;;5.35;1.17;;;;;;;;;;5041187;28;20223;-75
2021/01/23 04:45:23;;;;;;;1.30;1.20;;;;;;;;;;5059036;28;20183;-75
2021/01/23 04:47:52;;;;;;;1.63;1.53;;;;;;;;;;5059019;28;20255;-74
2021/01/23 04:50:18;;;;;;;1.63;1.52;;;;;;;;;;5059173;28;20430;-75
2021/01/23 04:52:44;;;;;;;1.48;1.38;;;;;;;;;;5058853;28;20168;-75
2021/01/23 04:55:10;;;;;;;1.63;1.10;;;;;;;;;;5059006;28;20223;-76
2021/01/23 05:00:40;;;;;;;1.20;1.10;;;;;;;;;;5057772;28;20179;-76
2021/01/23 05:03:07;;;;;;;1.35;1.25;;;;;;;;;;5055160;28;20164;-75
2021/01/23 05:05:33;;;;;;;1.10;0.88;;;;;;;;;;5055422;28;20603;-75
2021/01/23 05:08:12;;;;;;;1.42;1.33;;;;;;;;;;5055492;28;20630;-75
2021/01/23 05:10:39;;;;;;;1.83;1.40;;;;;;;;;;5037407;28;20180;-75
2021/01/23 05:16:25;;;;;;;2.60;1.25;;;;;;;;;;5055410;28;20283;-75
2021/01/23 05:18:57;;;;;;;1.60;1.30;;;;;;;;;;5055505;28;20215;-76
2021/01/23 05:21:24;;;;;;;1.63;1.52;;;;;;;;;;5055261;28;20500;-76
2021/01/23 05:24:02;;;;;;;1.77;1.67;;;;;;;;;;5055054;28;20177;-73
2021/01/23 05:26:28;;;;;;;1.42;1.33;;;;;;;;;;5055387;28;20615;-74
2021/01/23 05:28:54;;;;;;;1.60;1.50;;;;;;;;;;5055361;28;20233;-74
2021/01/23 05:31:20;;;;;;;1.73;1.63;;;;;;;;;;5054831;28;20180;-75
2021/01/23 05:33:46;;;;;;;3.00;1.70;;;;;;;;;;5054964;28;20415;-74
2021/01/23 05:36:13;;;;;;;1.40;1.30;;;;;;;;;;5037018;28;20578;-73
2021/01/23 05:38:42;;;;;;;1.50;1.40;;;;;;;;;;5055045;28;20173;-74
2021/01/23 05:41:08;;;;;;;1.63;1.50;;;;;;;;;;5054821;28;20176;-73
2021/01/23 05:43:34;;;;;;;1.63;1.53;;;;;;;;;;5054804;28;20164;-74
2021/01/23 05:46:03;;;;;;;1.50;1.33;;;;;;;;;;5054785;28;20415;-74
2021/01/23 05:48:29;;;;;;;1.33;1.23;;;;;;;;;;5054767;28;20407;-75
2021/01/23 05:50:55;;;;;;;1.50;1.40;;;;;;;;;;5054913;28;20222;-75
2021/01/23 05:53:21;;;;;;;1.73;1.63;;;;;;;;;;5036946;28;20172;-75
2021/01/23 05:55:47;;;;;;;1.63;1.52;;;;;;;;;;5054856;28;20801;-75
2021/01/23 06:01:18;;;;;;;1.73;1.50;;;;;;;;;;5054807;28;20230;-76
2021/01/23 06:03:45;;;;;;;2.38;2.17;;;;;;;;;;5054329;28;20160;-75
2021/01/23 06:06:11;;;;;;;2.33;1.98;;;;;;;;;;5054363;28;20187;-76
2021/01/23 06:08:38;;;;;;;1.65;1.55;;;;;;;;;;5054120;28;20294;-76
2021/01/23 06:11:04;;;;;;;6.63;2.55;;;;;;;;;;5054399;28;20230;-74
2021/01/23 06:16:33;;;;;;;2.17;1.75;;;;;;;;;;5054278;28;20231;-74
2021/01/23 06:18:59;;;;;;;1.70;1.60;;;;;;;;;;5054283;28;20168;-75
2021/01/23 06:21:44;;;;;;;1.70;1.60;;;;;;;;;;5054426;28;20766;-75
2021/01/23 06:24:10;;;;;;;2.00;1.80;;;;;;;;;;5053951;28;20421;-75
2021/01/23 06:26:57;;;;;;;2.40;2.17;;;;;;;;;;5054036;28;20176;-74
2021/01/23 06:29:36;;;;;;;1.90;1.70;;;;;;;;;;5037100;28;20197;-74
2021/01/23 06:32:14;;;;;;;2.35;1.60;;;;;;;;;;5053906;28;20172;-75
2021/01/23 06:34:48;;;;;;;1.88;1.65;;;;;;;;;;5054090;28;20173;-74
2021/01/23 06:37:27;;;;;;;2.30;2.00;;;;;;;;;;5053893;28;20185;-75
2021/01/23 06:40:04;;;;;;;2.35;2.15;;;;;;;;;;5053980;28;20541;-75
2021/01/23 06:42:30;;;;;;;1.98;1.55;;;;;;;;;;5053583;28;20168;-74
2021/01/23 06:45:09;;;;;;;2.38;1.92;;;;;;;;;;5053741;28;20186;-75
2021/01/23 06:47:39;;;;;;;1.80;1.35;;;;;;;;;;5053261;28;20173;-75
2021/01/23 06:50:05;;;;;;;2.45;2.17;;;;;;;;;;5053359;28;20208;-74
2021/01/23 06:52:31;;;;;;;2.15;1.95;;;;;;;;;;5053228;28;20172;-74
2021/01/23 06:54:57;;;;;;;1.93;1.83;;;;;;;;;;5052915;28;20173;-76
2021/01/23 06:57:24;;;;;;;1.80;1.70;;;;;;;;;;5035306;28;20439;-77
2021/01/23 06:59:50;;;;;;;2.08;1.88;;;;;;;;;;5052724;28;20415;-75
2021/01/23 07:02:17;;;;;;;2.83;1.50;;;;;;;;;;5053385;28;20261;-74
2021/01/23 07:04:49;;;;;;;1.95;1.85;;;;;;;;;;5053450;28;20214;-74
2021/01/23 07:07:16;;;;;;;2.65;2.20;;;;;;;;;;5053125;28;20239;-74
2021/01/23 07:09:58;;;;;;;2.25;2.00;;;;;;;;;;5053028;28;20203;-76
2021/01/23 07:12:43;;;;;;;3.60;1.90;;;;;;;;;;5053034;28;20165;-75
2021/01/23 07:15:13;;;;;;;2.58;2.38;;;;;;;;;;5053223;28;20212;-76
2021/01/23 07:17:40;;;;;;;2.42;1.92;;;;;;;;;;5053368;28;20548;-74
2021/01/23 07:20:07;;;;;;;2.38;2.17;;;;;;;;;;5053458;28;20169;-77
2021/01/23 07:22:33;;;;;;;2.15;1.85;;;;;;;;;;5053006;28;20570;-74
2021/01/23 07:25:00;;;;;;;3.50;2.10;;;;;;;;;;5052271;28;20218;-77
2021/01/23 07:27:26;;;;;;;3.95;2.65;;;;;;;;;;5052926;28;20169;-75
2021/01/23 07:29:52;;;;;;;3.72;2.00;;;;;;;;;;5052873;28;20173;-75
2021/01/23 07:32:19;;;;;;;1.90;1.75;;;;;;;;;;5052684;28;20632;-75
2021/01/23 07:34:54;;;;;;;2.90;2.28;;;;;;;;;;5053161;28;20206;-77
2021/01/23 07:37:39;;;;;;;2.55;2.20;;;;;;;;;;5053000;28;20504;-75
2021/01/23 07:40:06;;;;;;;3.33;2.78;;;;;;;;;;5052669;28;20172;-75
2021/01/23 07:42:32;;;;;;;2.78;2.47;;;;;;;;;;5035044;28;20241;-75
2021/01/23 07:45:00;;;;;;;3.60;2.35;;;;;;;;;;5052668;28;20173;-74
2021/01/23 07:47:26;;;;;;;3.10;2.80;;;;;;;;;;5052653;28;20170;-76
2021/01/23 07:50:02;;;;;;;3.00;2.60;;;;;;;;;;5052626;28;20172;-76
2021/01/23 07:52:28;;;;;;;5.40;3.03;;;;;;;;;;5052604;28;20172;-77
2021/01/23 07:54:54;;;;;;;3.05;2.38;;;;;;;;;;5052198;28;20180;-75
2021/01/23 07:57:20;;;;;;;3.35;2.88;;;;;;;;;;5052890;28;20179;-75
2021/01/23 07:59:47;;;;;;;3.35;3.05;;;;;;;;;;5052535;28;20190;-74
2021/01/23 08:02:13;;;;;;;4.38;3.55;;;;;;;;;;5052956;28;20169;-74
2021/01/23 08:04:40;;;;;;;4.18;3.20;;;;;;;;;;5052516;28;20194;-76
2021/01/23 08:07:24;;;;;;;3.13;2.83;;;;;;;;;;5052440;28;20228;-74
2021/01/23 08:10:07;;;;;;;3.95;2.95;;;;;;;;;;5052775;28;20261;-76
2021/01/23 08:12:34;;;;;;;3.70;3.05;;;;;;;;;;5052593;28;20176;-74
2021/01/23 08:15:01;;;;;;;9.43;4.05;;;;;;;;;;5052431;28;20168;-74
2021/01/23 08:17:56;;;;;;;9.07;6.05;;;;;;;;;;5052624;28;20230;-74
2021/01/23 08:20:31;;;;;;;6.70;4.70;;;;;;;;;;5031524;28;20224;-74
2021/01/23 08:23:05;;;;;;;5.35;3.85;;;;;;;;;;5052490;28;20243;-75
2021/01/23 08:25:31;;;;;;;8.10;5.05;;;;;;;;;;5052252;28;20631;-75
2021/01/23 08:27:58;;;;;;;7.60;5.65;;;;;;;;;;5052702;28;20168;-75
2021/01/23 08:30:24;;;;;;;6.40;5.22;;;;;;;;;;5052494;28;20175;-76
2021/01/23 08:32:51;;;;;;;6.97;4.95;;;;;;;;;;5052757;28;20253;-76
2021/01/23 08:35:17;;;;;;;4.50;4.10;;;;;;;;;;5052906;28;20239;-77
2021/01/23 08:37:44;;;;;;;4.38;3.97;;;;;;;;;;5056614;28;20173;-74
2021/01/23 08:40:10;;;;;;;4.10;3.70;;;;;;;;;;5038206;28;20201;-75
2021/01/23 08:42:36;;;;;;;4.05;3.65;;;;;;;;;;5056021;28;20161;-74
2021/01/23 08:45:03;;;;;;;3.73;3.40;;;;;;;;;;5055890;28;20706;-73
2021/01/23 08:47:29;;;;;;;3.85;2.72;;;;;;;;;;5056308;28;20427;-75
2021/01/23 08:49:55;;;;;;;4.40;3.77;;;;;;;;;;5055878;28;20573;-76
2021/01/23 08:52:20;;;;;;;4.40;3.10;;;;;;;;;;5056338;28;20423;-74
2021/01/23 08:54:46;;;;;;;3.90;2.90;;;;;;;;;;5055920;28;20423;-75
2021/01/23 08:57:12;;;;;;;3.10;2.90;;;;;;;;;;5055819;28;20204;-75
2021/01/23 09:02:42;;;;;;;3.00;2.70;;;;;;;;;;5055564;28;20176;-75
2021/01/23 09:05:10;;;;;;;4.00;2.80;;;;;;;;;;5055245;28;20619;-77
2021/01/23 09:07:38;;;;;;;2.15;1.95;;;;;;;;;;5055467;28;20838;-76
2021/01/23 09:10:05;;;;;;;3.08;2.17;;;;;;;;;;5055354;28;20176;-78
2021/01/23 09:12:31;;;;;;;4.63;3.22;;;;;;;;;;5054695;28;20730;-77
2021/01/23 09:18:00;;;;;;;3.50;3.03;;;;;;;;;;5054704;28;20981;-75
2021/01/23 09:20:26;;;;;;;2.50;2.30;;;;;;;;;;5054650;28;20184;-75
2021/01/23 09:22:52;;;;;;;4.95;4.40;;;;;;;;;;5054298;28;20170;-74
2021/01/23 09:25:19;;;;;;;3.63;3.33;;;;;;;;;;5054594;28;20170;-73
2021/01/23 09:27:46;;;;;;;3.42;2.70;;;;;;;;;;5054693;28;20173;-74
2021/01/23 09:33:15;;;;;;;2.20;2.00;;;;;;;;;;5055023;28;20257;-75
2021/01/23 09:35:41;;;;;;;1.43;1.33;;;;;;;;;;5054667;28;20287;-74
2021/01/23 09:38:07;;;;;;;2.60;2.23;;;;;;;;;;5054834;28;20468;-75
2021/01/23 09:40:33;;;;;;;1.60;1.50;;;;;;;;;;5054516;28;20430;-75
2021/01/23 09:42:59;;;;;;;2.00;1.80;;;;;;;;;;5037245;28;20206;-76
2021/01/23 09:48:28;;;;;;;3.17;2.40;;;;;;;;;;5054288;28;20176;-74
2021/01/23 09:50:54;;;;;;;2.80;2.60;;;;;;;;;;5054531;28;20166;-74
2021/01/23 09:53:20;;;;;;;2.45;2.13;;;;;;;;;;5054584;28;20505;-75
2021/01/23 09:55:46;;;;;;;2.50;1.90;;;;;;;;;;5053968;28;20683;-75
2021/01/23 09:58:13;;;;;;;2.40;2.05;;;;;;;;;;5054693;28;20182;-75
2021/01/23 10:03:42;;;;;;;3.55;2.00;;;;;;;;;;5054657;28;20260;-74
2021/01/23 10:06:08;;;;;;;2.33;1.90;;;;;;;;;;5054384;28;20166;-74
2021/01/23 10:08:34;;;;;;;3.50;2.00;;;;;;;;;;5054013;28;20533;-74
2021/01/23 10:11:00;;;;;;;2.50;2.20;;;;;;;;;;5052906;28;20410;-74
2021/01/23 10:13:26;;;;;;;2.30;1.90;;;;;;;;;;5054354;28;20461;-75
2021/01/23 10:18:56;;;;;;;1.73;1.63;;;;;;;;;;5054001;28;20419;-75
2021/01/23 10:21:22;;;;;;;1.80;1.37;;;;;;;;;;5054274;28;20171;-75
2021/01/23 10:23:48;;;;;;;2.30;1.80;;;;;;;;;;5053811;28;20460;-75
2021/01/23 10:26:17;;;;;;;2.40;2.10;;;;;;;;;;5053789;28;20762;-74
2021/01/23 10:28:43;;;;;;;2.47;2.20;;;;;;;;;;5053914;28;20466;-75
2021/01/23 10:31:08;;;;;;;5.33;2.03;;;;;;;;;;5053778;28;20254;-75
2021/01/23 10:33:35;;;;;;;1.70;1.60;;;;;;;;;;5053831;28;20422;-76
2021/01/23 10:36:01;;;;;;;2.50;2.10;;;;;;;;;;5053411;28;20463;-76
2021/01/23 10:38:27;;;;;;;3.53;3.13;;;;;;;;;;5053475;28;20177;-75
2021/01/23 10:40:54;;;;;;;3.17;2.55;;;;;;;;;;5053136;28;20408;-73
2021/01/23 10:43:20;;;;;;;3.95;2.53;;;;;;;;;;5053588;28;20252;-76
2021/01/23 10:48:49;;;;;;;2.92;2.20;;;;;;;;;;5053466;28;20606;-75
2021/01/23 10:51:15;;;;;;;3.00;2.70;;;;;;;;;;5053188;28;20207;-74
2021/01/23 10:53:41;;;;;;;2.20;2.00;;;;;;;;;;5053216;28;20546;-73
2021/01/23 10:56:07;;;;;;;3.73;2.03;;;;;;;;;;5053119;28;20643;-75
2021/01/23 10:58:34;;;;;;;4.00;2.42;;;;;;;;;;5052836;28;20417;-75
2021/01/23 11:04:04;;;;;;;3.08;2.42;;;;;;;;;;5053071;28;20175;-75
2021/01/23 11:06:30;;;;;;;2.67;2.47;;;;;;;;;;5052967;28;20168;-76
2021/01/23 11:08:56;;;;;;;7.00;2.77;;;;;;;;;;5053012;28;20431;-75
2021/01/23 11:11:23;;;;;;;3.60;2.90;;;;;;;;;;5052887;28;20427;-76
2021/01/23 11:13:49;;;;;;;4.70;2.60;;;;;;;;;;5052867;28;20415;-75
2021/01/23 11:19:20;;;;;;;4.07;2.97;;;;;;;;;;5053046;28;20472;-75
2021/01/23 11:21:46;;;;;;;3.90;2.90;;;;;;;;;;5052987;28;20775;-75
2021/01/23 11:24:12;;;;;;;5.23;3.40;;;;;;;;;;5052574;28;20409;-76
2021/01/23 11:26:37;;;;;;;3.10;2.23;;;;;;;;;;5052723;28;20427;-76
2021/01/23 11:29:03;;;;;;;5.00;2.87;;;;;;;;;;5052728;28;20886;-75
2021/01/23 11:34:33;;;;;;;2.80;2.50;;;;;;;;;;5052639;28;20895;-75
2021/01/23 11:36:59;;;;;;;3.47;2.67;;;;;;;;;;5052656;28;20466;-74
2021/01/23 11:39:25;;;;;;;2.60;2.40;;;;;;;;;;5052654;28;20422;-75
2021/01/23 11:41:51;;;;;;;2.50;2.07;;;;;;;;;;5052492;28;20522;-75
2021/01/23 11:44:17;;;;;;;5.70;2.77;;;;;;;;;;5052542;28;20415;-75
2021/01/23 11:49:47;;;;;;;3.30;2.80;;;;;;;;;;5052573;28;20583;-74
2021/01/23 11:52:13;;;;;;;2.67;2.47;;;;;;;;;;5052399;28;20557;-75
2021/01/23 11:54:39;;;;;;;3.07;2.77;;;;;;;;;;5052353;28;20508;-74
2021/01/23 11:57:08;;;;;;;2.10;1.73;;;;;;;;;;5052659;28;20537;-74
2021/01/23 11:59:34;;;;;;;2.40;2.20;;;;;;;;;;5052296;28;20415;-75
2021/01/23 12:02:00;;;;;;;2.50;2.30;;;;;;;;;;5052441;28;20506;-76
2021/01/23 12:04:25;;;;;;;3.00;2.33;;;;;;;;;;5052395;28;20834;-75
2021/01/23 12:06:51;;;;;;;2.03;1.90;;;;;;;;;;5052171;28;20526;-76
2021/01/23 12:09:17;;;;;;;2.07;1.70;;;;;;;;;;5052216;28;20496;-74
2021/01/23 12:11:47;;;;;;;2.63;2.20;;;;;;;;;;5055322;28;20412;-75
2021/01/23 12:14:13;;;;;;;2.23;2.03;;;;;;;;;;5056775;28;20415;-75
2021/01/23 12:19:43;;;;;;;2.70;2.50;;;;;;;;;;5056233;28;20417;-76
2021/01/23 12:22:12;;;;;;;4.30;2.57;;;;;;;;;;5056604;28;20411;-74
2021/01/23 12:24:38;;;;;;;3.30;2.70;;;;;;;;;;5056041;28;20411;-78
2021/01/23 12:27:04;;;;;;;2.20;2.00;;;;;;;;;;5056412;28;20410;-75
2021/01/23 12:29:30;;;;;;;3.50;2.80;;;;;;;;;;5056264;28;20431;-75
2021/01/23 12:35:00;;;;;;;3.40;2.93;;;;;;;;;;5056289;28;20430;-75
2021/01/23 12:37:26;;;;;;;3.20;2.60;;;;;;;;;;5056479;28;20466;-75
2021/01/23 12:39:52;;;;;;;4.10;3.37;;;;;;;;;;5056062;28;20796;-75
2021/01/23 12:42:18;;;;;;;4.03;3.13;;;;;;;;;;5056431;28;20419;-76
2021/01/23 12:44:44;;;;;;;3.37;2.33;;;;;;;;;;5055900;28;20415;-75
2021/01/23 12:50:13;;;;;;;3.00;2.33;;;;;;;;;;5056115;28;20425;-75
2021/01/23 12:52:39;;;;;;;3.43;2.60;;;;;;;;;;5055905;28;20411;-75
2021/01/23 12:55:09;;;;;;;4.17;2.90;;;;;;;;;;5055374;28;20506;-74
2021/01/23 12:57:36;;;;;;;4.17;3.43;;;;;;;;;;5055658;28;20772;-74
2021/01/23 13:00:03;;;;;;;5.80;2.43;;;;;;;;;;5056010;28;20883;-75
2021/01/23 13:02:29;;;;;;;4.22;2.25;;;;;;;;;;5055761;28;20423;-74
2021/01/23 13:04:57;;;;;;;7.47;3.27;;;;;;;;;;5055589;28;20230;-75
2021/01/23 13:07:23;;;;;;;2.42;2.22;;;;;;;;;;5055691;28;20478;-75
2021/01/23 13:09:49;;;;;;;2.23;2.10;;;;;;;;;;5055390;28;20769;-75
2021/01/23 13:12:15;;;;;;;4.30;1.90;;;;;;;;;;5055417;28;20415;-74
2021/01/23 13:14:41;;;;;;;3.33;2.63;;;;;;;;;;5055148;28;20452;-74
2021/01/23 13:20:12;;;;;;;4.43;2.30;;;;;;;;;;5055028;28;20886;-75
2021/01/23 13:22:40;;;;;;;2.10;1.90;;;;;;;;;;5054182;28;20490;-75
2021/01/23 13:25:07;;;;;;;2.00;1.77;;;;;;;;;;5055227;28;20449;-75
2021/01/23 13:27:33;;;;;;;3.30;2.40;;;;;;;;;;5037349;28;20843;-75
2021/01/23 13:29:59;;;;;;;2.40;2.20;;;;;;;;;;5054998;28;20475;-75
2021/01/23 13:35:29;;;;;;;3.87;2.40;;;;;;;;;;5055129;28;20499;-75
2021/01/23 13:37:55;;;;;;;1.87;1.77;;;;;;;;;;5054947;28;20899;-74
2021/01/23 13:40:21;;;;;;;3.37;1.97;;;;;;;;;;5054527;28;20446;-75
2021/01/23 13:42:47;;;;;;;4.07;2.17;;;;;;;;;;5054820;28;20416;-74
2021/01/23 13:45:13;;;;;;;2.50;1.97;;;;;;;;;;5054671;28;20418;-75
2021/01/23 13:47:39;;;;;;;4.10;2.20;;;;;;;;;;5054844;28;20411;-75
2021/01/23 13:50:05;;;;;;;3.47;1.60;;;;;;;;;;5054867;28;20912;-75
2021/01/23 13:52:31;;;;;;;2.07;1.87;;;;;;;;;;5055008;28;20411;-73
2021/01/23 13:54:57;;;;;;;2.00;1.77;;;;;;;;;;5054300;28;20751;-73
2021/01/23 13:57:23;;;;;;;1.57;1.47;;;;;;;;;;5046177;28;20481;-74
2021/01/23 13:59:49;;;;;;;3.43;1.77;;;;;;;;;;5054157;28;20418;-73
2021/01/23 14:05:19;;;;;;;2.83;2.60;;;;;;;;;;5054483;28;20233;-73
2021/01/23 14:07:45;;;;;;;2.87;2.53;;;;;;;;;;5054137;28;20966;-72
2021/01/23 14:10:11;;;;;;;2.40;2.10;;;;;;;;;;5054057;28;20499;-74
2021/01/23 14:12:37;;;;;;;7.30;2.57;;;;;;;;;;5054211;28;20402;-73
2021/01/23 14:15:04;;;;;;;3.20;2.55;;;;;;;;;;5053869;28;20419;-74
2021/01/23 14:20:33;;;;;;;2.70;2.50;;;;;;;;;;5053901;28;20230;-74
2021/01/23 14:22:59;;;;;;;4.00;2.70;;;;;;;;;;5053947;28;20163;-72
2021/01/23 14:25:27;;;;;;;2.90;2.25;;;;;;;;;;5053656;28;20505;-74
2021/01/23 14:27:53;;;;;;;4.18;3.28;;;;;;;;;;5054001;28;20176;-74
2021/01/23 14:30:19;;;;;;;4.00;3.60;;;;;;;;;;5053558;28;20182;-73
2021/01/23 14:35:48;;;;;;;5.78;3.88;;;;;;;;;;5053405;28;20623;-74
2021/01/23 14:38:14;;;;;;;3.90;3.50;;;;;;;;;;5053745;28;20163;-73
2021/01/23 14:40:40;;;;;;;6.13;4.30;;;;;;;;;;5053627;28;20229;-75
2021/01/23 14:43:06;;;;;;;3.70;3.37;;;;;;;;;;5053739;28;20453;-73
2021/01/23 14:45:32;;;;;;;5.90;4.57;;;;;;;;;;5053403;28;20909;-73
2021/01/23 14:51:02;;;;;;;6.95;5.70;;;;;;;;;;5053536;28;20228;-73
2021/01/23 14:53:28;;;;;;;7.70;5.27;;;;;;;;;;5053530;28;20198;-73
2021/01/23 14:55:54;;;;;;;5.90;5.35;;;;;;;;;;5053441;28;20531;-75
2021/01/23 14:58:20;;;;;;;3.13;2.83;;;;;;;;;;5053411;28;20259;-74
2021/01/23 15:00:46;;;;;;;6.30;3.35;;;;;;;;;;5053092;28;20486;-74
2021/01/23 15:06:15;;;;;;;6.13;5.00;;;;;;;;;;5053245;28;20183;-74
2021/01/23 15:08:41;;;;;;;5.70;4.50;;;;;;;;;;5052813;28;20233;-74
2021/01/23 15:11:07;;;;;;;6.30;3.83;;;;;;;;;;5052938;28;20417;-74
2021/01/23 15:13:33;;;;;;;5.20;4.70;;;;;;;;;;5052752;28;20816;-73
2021/01/23 15:15:59;;;;;;;3.67;2.60;;;;;;;;;;5052831;28;20452;-73
2021/01/23 15:21:29;;;;;;;4.38;2.67;;;;;;;;;;5052915;28;20412;-74
2021/01/23 15:23:55;;;;;;;3.67;3.30;;;;;;;;;;5052745;28;20172;-74
2021/01/23 15:26:21;;;;;;;4.80;3.20;;;;;;;;;;5052713;28;20474;-74
2021/01/23 15:28:49;;;;;;;5.45;3.00;;;;;;;;;;5034668;28;20428;-74
2021/01/23 15:31:15;;;;;;;2.17;1.95;;;;;;;;;;5052696;28;20159;-73
2021/01/23 15:36:44;;;;;;;5.30;3.35;;;;;;;;;;5052752;28;20476;-73
2021/01/23 15:39:11;;;;;;;7.15;3.75;;;;;;;;;;5052773;28;20178;-73
2021/01/23 15:41:37;;;;;;;4.22;3.25;;;;;;;;;;5052723;28;20643;-74
2021/01/23 15:44:04;;;;;;;3.83;3.15;;;;;;;;;;5052650;28;20258;-74
2021/01/23 15:46:30;;;;;;;4.82;3.38;;;;;;;;;;5052005;28;20184;-75
2021/01/23 15:48:55;;;;;;;3.90;3.00;;;;;;;;;;5052444;28;20167;-73
2021/01/23 15:51:21;;;;;;;7.33;5.57;;;;;;;;;;5052503;28;20425;-73
2021/01/23 15:53:47;;;;;;;6.37;5.73;;;;;;;;;;5052469;28;20422;-73
2021/01/23 15:56:14;;;;;;;5.68;5.10;;;;;;;;;;5052596;28;20503;-73
2021/01/23 15:58:40;;;;;;;5.95;3.78;;;;;;;;;;5052543;28;20171;-73
2021/01/23 16:01:06;;;;;;;5.30;4.47;;;;;;;;;;5052631;28;20181;-74
2021/01/23 16:06:35;;;;;;;3.90;3.50;;;;;;;;;;5052601;28;20214;-74
2021/01/23 16:09:01;;;;;;;9.10;4.30;;;;;;;;;;5052218;28;20217;-73
2021/01/23 16:11:27;;;;;;;4.10;2.70;;;;;;;;;;5052459;28;20205;-74
2021/01/23 16:13:53;;;;;;;4.95;3.95;;;;;;;;;;5052755;28;20774;-74
2021/01/23 16:16:19;;;;;;;5.73;4.47;;;;;;;;;;5052279;28;20216;-73
2021/01/23 16:21:49;;;;;;;7.00;5.28;;;;;;;;;;5052373;28;20964;-73
2021/01/23 16:24:15;;;;;;;7.70;5.37;;;;;;;;;;5051931;28;20176;-73
2021/01/23 16:26:41;;;;;;;7.90;6.20;;;;;;;;;;5052303;28;20863;-74
2021/01/23 16:29:07;;;;;;;8.93;6.72;;;;;;;;;;5051863;28;20816;-73
2021/01/23 16:31:33;;;;;;;7.07;4.70;;;;;;;;;;5052051;28;20201;-74
2021/01/23 16:33:59;;;;;;;6.75;5.10;;;;;;;;;;5034291;28;20430;-73
2021/01/23 16:36:27;;;;;;;8.53;7.17;;;;;;;;;;5052145;28;20205;-75
2021/01/23 16:38:53;;;;;;;10.13;7.28;;;;;;;;;;5051902;28;20411;-73
2021/01/23 16:41:19;;;;;;;10.40;5.73;;;;;;;;;;5052123;28;20177;-74
2021/01/23 16:43:45;;;;;;;7.50;4.95;;;;;;;;;;5034615;28;20423;-74
2021/01/23 16:46:14;;;;;;;5.43;4.55;;;;;;;;;;5052277;28;20473;-74